sensor_id;sensor_type;location;lat;lon;timestamp;P1;durP1;ratioP1;P2;durP2;ratioP2
68479;SDS011;55469;48.934;12.050;2022-07-11T00:02:04;1.73;;;0.70;;
68479;SDS011;55469;48.934;12.050;2022-07-11T00:04:32;1.13;;;0.80;;
68479;SDS011;55469;48.934;12.050;2022-07-11T00:06:59;2.33;;;1.00;;
68479;SDS011;55469;48.934;12.050;2022-07-11T00:09:27;1.42;;;0.60;;
68479;SDS011;55469;48.934;12.050;2022-07-11T00:11:53;1.02;;;0.63;;
68479;SDS011;55469;48.934;12.050;2022-07-11T00:14:19;1.15;;;0.60;;
68479;SDS011;55469;48.934;12.050;2022-07-11T00:16:46;0.98;;;0.60;;
68479;SDS011;55469;48.934;12.050;2022-07-11T00:19:17;0.70;;;0.60;;
68479;SDS011;55469;48.934;12.050;2022-07-11T00:21:45;0.65;;;0.60;;
68479;SDS011;55469;48.934;12.050;2022-07-11T00:24:14;1.73;;;0.75;;
68479;SDS011;55469;48.934;12.050;2022-07-11T00:26:42;1.17;;;0.50;;
68479;SDS011;55469;48.934;12.050;2022-07-11T00:29:08;0.60;;;0.60;;
68479;SDS011;55469;48.934;12.050;2022-07-11T00:31:34;1.40;;;0.70;;
68479;SDS011;55469;48.934;12.050;2022-07-11T00:34:00;0.60;;;0.52;;
68479;SDS011;55469;48.934;12.050;2022-07-11T00:36:26;1.40;;;0.50;;
68479;SDS011;55469;48.934;12.050;2022-07-11T00:38:51;2.65;;;0.80;;
68479;SDS011;55469;48.934;12.050;2022-07-11T00:41:17;0.93;;;0.70;;
68479;SDS011;55469;48.934;12.050;2022-07-11T00:43:49;1.13;;;0.70;;
68479;SDS011;55469;48.934;12.050;2022-07-11T00:46:21;0.73;;;0.60;;
68479;SDS011;55469;48.934;12.050;2022-07-11T00:48:49;3.03;;;0.77;;
68479;SDS011;55469;48.934;12.050;2022-07-11T00:51:15;0.77;;;0.77;;
68479;SDS011;55469;48.934;12.050;2022-07-11T00:53:46;1.27;;;0.68;;
68479;SDS011;55469;48.934;12.050;2022-07-11T00:56:16;0.68;;;0.60;;
68479;SDS011;55469;48.934;12.050;2022-07-11T00:58:44;0.68;;;0.68;;
68479;SDS011;55469;48.934;12.050;2022-07-11T01:01:11;0.70;;;0.60;;
68479;SDS011;55469;48.934;12.050;2022-07-11T01:03:37;0.70;;;0.60;;
68479;SDS011;55469;48.934;12.050;2022-07-11T01:06:05;1.52;;;0.80;;
68479;SDS011;55469;48.934;12.050;2022-07-11T01:08:32;1.10;;;0.60;;
68479;SDS011;55469;48.934;12.050;2022-07-11T01:11:03;1.27;;;0.70;;
68479;SDS011;55469;48.934;12.050;2022-07-11T01:13:30;0.85;;;0.60;;
68479;SDS011;55469;48.934;12.050;2022-07-11T01:16:09;1.52;;;0.65;;
68479;SDS011;55469;48.934;12.050;2022-07-11T01:18:44;0.77;;;0.60;;
68479;SDS011;55469;48.934;12.050;2022-07-11T01:21:21;1.35;;;0.60;;
68479;SDS011;55469;48.934;12.050;2022-07-11T01:23:47;0.60;;;0.60;;
68479;SDS011;55469;48.934;12.050;2022-07-11T01:26:17;0.65;;;0.57;;
68479;SDS011;55469;48.934;12.050;2022-07-11T01:28:45;1.48;;;0.70;;
68479;SDS011;55469;48.934;12.050;2022-07-11T01:31:11;1.10;;;0.73;;
68479;SDS011;55469;48.934;12.050;2022-07-11T01:33:38;2.40;;;0.65;;
68479;SDS011;55469;48.934;12.050;2022-07-11T01:36:04;0.55;;;0.50;;
68479;SDS011;55469;48.934;12.050;2022-07-11T01:38:30;0.88;;;0.60;;
68479;SDS011;55469;48.934;12.050;2022-07-11T01:40:56;1.23;;;0.60;;
68479;SDS011;55469;48.934;12.050;2022-07-11T01:43:22;0.98;;;0.70;;
68479;SDS011;55469;48.934;12.050;2022-07-11T01:45:57;0.90;;;0.88;;
68479;SDS011;55469;48.934;12.050;2022-07-11T01:48:23;0.80;;;0.70;;
68479;SDS011;55469;48.934;12.050;2022-07-11T01:50:49;0.88;;;0.70;;
68479;SDS011;55469;48.934;12.050;2022-07-11T01:53:15;1.05;;;0.57;;
68479;SDS011;55469;48.934;12.050;2022-07-11T01:55:41;1.30;;;0.70;;
68479;SDS011;55469;48.934;12.050;2022-07-11T01:58:08;1.25;;;0.70;;
68479;SDS011;55469;48.934;12.050;2022-07-11T02:00:34;1.00;;;0.73;;
68479;SDS011;55469;48.934;12.050;2022-07-11T02:03:01;1.35;;;0.80;;
68479;SDS011;55469;48.934;12.050;2022-07-11T02:05:27;1.17;;;0.80;;
68479;SDS011;55469;48.934;12.050;2022-07-11T02:07:53;1.30;;;0.80;;
68479;SDS011;55469;48.934;12.050;2022-07-11T02:10:37;1.45;;;0.73;;
68479;SDS011;55469;48.934;12.050;2022-07-11T02:13:04;1.85;;;0.80;;
68479;SDS011;55469;48.934;12.050;2022-07-11T02:15:30;0.73;;;0.60;;
68479;SDS011;55469;48.934;12.050;2022-07-11T02:17:56;1.20;;;0.60;;
68479;SDS011;55469;48.934;12.050;2022-07-11T02:20:24;1.38;;;0.80;;
68479;SDS011;55469;48.934;12.050;2022-07-11T02:22:50;1.20;;;0.70;;
68479;SDS011;55469;48.934;12.050;2022-07-11T02:25:17;1.63;;;0.70;;
68479;SDS011;55469;48.934;12.050;2022-07-11T02:27:44;1.42;;;0.65;;
68479;SDS011;55469;48.934;12.050;2022-07-11T02:30:10;0.85;;;0.70;;
68479;SDS011;55469;48.934;12.050;2022-07-11T02:32:36;1.73;;;0.68;;
68479;SDS011;55469;48.934;12.050;2022-07-11T02:35:02;0.65;;;0.60;;
68479;SDS011;55469;48.934;12.050;2022-07-11T02:37:29;1.02;;;0.90;;
68479;SDS011;55469;48.934;12.050;2022-07-11T02:39:55;1.02;;;0.73;;
68479;SDS011;55469;48.934;12.050;2022-07-11T02:42:21;1.05;;;0.70;;
68479;SDS011;55469;48.934;12.050;2022-07-11T02:44:46;0.73;;;0.73;;
68479;SDS011;55469;48.934;12.050;2022-07-11T02:47:12;0.80;;;0.57;;
68479;SDS011;55469;48.934;12.050;2022-07-11T02:49:41;1.42;;;0.70;;
68479;SDS011;55469;48.934;12.050;2022-07-11T02:52:07;0.88;;;0.60;;
68479;SDS011;55469;48.934;12.050;2022-07-11T02:54:33;1.35;;;0.70;;
68479;SDS011;55469;48.934;12.050;2022-07-11T02:56:59;0.70;;;0.70;;
68479;SDS011;55469;48.934;12.050;2022-07-11T02:59:25;0.70;;;0.70;;
68479;SDS011;55469;48.934;12.050;2022-07-11T03:01:52;0.57;;;0.50;;
68479;SDS011;55469;48.934;12.050;2022-07-11T03:04:17;1.38;;;0.80;;
68479;SDS011;55469;48.934;12.050;2022-07-11T03:06:43;1.30;;;0.60;;
68479;SDS011;55469;48.934;12.050;2022-07-11T03:09:09;1.70;;;0.70;;
68479;SDS011;55469;48.934;12.050;2022-07-11T03:11:35;1.52;;;0.68;;
68479;SDS011;55469;48.934;12.050;2022-07-11T03:14:01;1.00;;;0.77;;
68479;SDS011;55469;48.934;12.050;2022-07-11T03:16:27;1.80;;;0.68;;
68479;SDS011;55469;48.934;12.050;2022-07-11T03:18:55;0.75;;;0.75;;
68479;SDS011;55469;48.934;12.050;2022-07-11T03:21:22;1.33;;;0.63;;
68479;SDS011;55469;48.934;12.050;2022-07-11T03:23:49;2.25;;;1.00;;
68479;SDS011;55469;48.934;12.050;2022-07-11T03:26:15;2.35;;;0.80;;
68479;SDS011;55469;48.934;12.050;2022-07-11T03:28:41;0.77;;;0.70;;
68479;SDS011;55469;48.934;12.050;2022-07-11T03:31:07;1.77;;;0.90;;
68479;SDS011;55469;48.934;12.050;2022-07-11T03:33:33;0.80;;;0.80;;
68479;SDS011;55469;48.934;12.050;2022-07-11T03:35:58;0.65;;;0.65;;
68479;SDS011;55469;48.934;12.050;2022-07-11T03:38:24;1.02;;;0.60;;
68479;SDS011;55469;48.934;12.050;2022-07-11T03:40:50;0.90;;;0.68;;
68479;SDS011;55469;48.934;12.050;2022-07-11T03:43:16;1.52;;;0.82;;
68479;SDS011;55469;48.934;12.050;2022-07-11T03:45:43;1.45;;;0.77;;
68479;SDS011;55469;48.934;12.050;2022-07-11T03:48:09;1.98;;;0.88;;
68479;SDS011;55469;48.934;12.050;2022-07-11T03:50:35;1.20;;;0.70;;
68479;SDS011;55469;48.934;12.050;2022-07-11T03:53:01;1.10;;;0.70;;
68479;SDS011;55469;48.934;12.050;2022-07-11T03:55:27;1.33;;;0.77;;
68479;SDS011;55469;48.934;12.050;2022-07-11T03:57:54;1.05;;;0.80;;
68479;SDS011;55469;48.934;12.050;2022-07-11T04:00:20;1.73;;;0.90;;
68479;SDS011;55469;48.934;12.050;2022-07-11T04:02:46;0.75;;;0.60;;
68479;SDS011;55469;48.934;12.050;2022-07-11T04:05:13;1.30;;;0.70;;
68479;SDS011;55469;48.934;12.050;2022-07-11T04:07:39;0.85;;;0.73;;
68479;SDS011;55469;48.934;12.050;2022-07-11T04:10:07;0.85;;;0.60;;
68479;SDS011;55469;48.934;12.050;2022-07-11T04:12:33;1.73;;;0.80;;
68479;SDS011;55469;48.934;12.050;2022-07-11T04:14:59;0.80;;;0.80;;
68479;SDS011;55469;48.934;12.050;2022-07-11T04:17:25;0.98;;;0.80;;
68479;SDS011;55469;48.934;12.050;2022-07-11T04:19:52;2.78;;;0.90;;
68479;SDS011;55469;48.934;12.050;2022-07-11T04:22:18;1.27;;;0.70;;
68479;SDS011;55469;48.934;12.050;2022-07-11T04:24:44;1.63;;;0.80;;
68479;SDS011;55469;48.934;12.050;2022-07-11T04:27:10;1.60;;;1.00;;
68479;SDS011;55469;48.934;12.050;2022-07-11T04:29:36;1.75;;;0.70;;
68479;SDS011;55469;48.934;12.050;2022-07-11T04:32:02;1.00;;;0.90;;
68479;SDS011;55469;48.934;12.050;2022-07-11T04:34:27;0.88;;;0.70;;
68479;SDS011;55469;48.934;12.050;2022-07-11T04:36:53;1.17;;;0.90;;
68479;SDS011;55469;48.934;12.050;2022-07-11T04:39:19;1.67;;;0.77;;
68479;SDS011;55469;48.934;12.050;2022-07-11T04:41:45;1.15;;;1.00;;
68479;SDS011;55469;48.934;12.050;2022-07-11T04:44:10;1.35;;;0.90;;
68479;SDS011;55469;48.934;12.050;2022-07-11T04:46:36;1.20;;;0.73;;
68479;SDS011;55469;48.934;12.050;2022-07-11T04:49:03;0.90;;;0.70;;
68479;SDS011;55469;48.934;12.050;2022-07-11T04:51:28;0.85;;;0.60;;
68479;SDS011;55469;48.934;12.050;2022-07-11T04:53:54;1.25;;;0.93;;
68479;SDS011;55469;48.934;12.050;2022-07-11T04:56:20;1.33;;;0.70;;
68479;SDS011;55469;48.934;12.050;2022-07-11T04:58:45;2.03;;;0.90;;
68479;SDS011;55469;48.934;12.050;2022-07-11T05:01:11;1.10;;;0.90;;
68479;SDS011;55469;48.934;12.050;2022-07-11T05:03:37;0.95;;;0.90;;
68479;SDS011;55469;48.934;12.050;2022-07-11T05:06:03;3.63;;;0.90;;
68479;SDS011;55469;48.934;12.050;2022-07-11T05:08:29;1.38;;;0.88;;
68479;SDS011;55469;48.934;12.050;2022-07-11T05:10:55;1.02;;;0.93;;
68479;SDS011;55469;48.934;12.050;2022-07-11T05:13:22;1.30;;;0.73;;
68479;SDS011;55469;48.934;12.050;2022-07-11T05:15:48;1.52;;;1.00;;
68479;SDS011;55469;48.934;12.050;2022-07-11T05:18:13;1.02;;;0.68;;
68479;SDS011;55469;48.934;12.050;2022-07-11T05:20:39;0.70;;;0.70;;
68479;SDS011;55469;48.934;12.050;2022-07-11T05:23:05;1.13;;;0.77;;
68479;SDS011;55469;48.934;12.050;2022-07-11T05:25:31;1.35;;;0.75;;
68479;SDS011;55469;48.934;12.050;2022-07-11T05:27:56;0.98;;;0.70;;
68479;SDS011;55469;48.934;12.050;2022-07-11T05:30:22;0.85;;;0.85;;
68479;SDS011;55469;48.934;12.050;2022-07-11T05:32:48;1.45;;;0.80;;
68479;SDS011;55469;48.934;12.050;2022-07-11T05:35:14;2.05;;;0.90;;
68479;SDS011;55469;48.934;12.050;2022-07-11T05:37:40;1.15;;;0.70;;
68479;SDS011;55469;48.934;12.050;2022-07-11T05:40:06;1.02;;;0.90;;
68479;SDS011;55469;48.934;12.050;2022-07-11T05:42:32;1.27;;;0.80;;
68479;SDS011;55469;48.934;12.050;2022-07-11T05:44:58;0.77;;;0.70;;
68479;SDS011;55469;48.934;12.050;2022-07-11T05:47:23;0.70;;;0.70;;
68479;SDS011;55469;48.934;12.050;2022-07-11T05:49:49;1.05;;;0.85;;
68479;SDS011;55469;48.934;12.050;2022-07-11T05:52:15;1.42;;;0.80;;
68479;SDS011;55469;48.934;12.050;2022-07-11T05:54:40;1.38;;;0.80;;
68479;SDS011;55469;48.934;12.050;2022-07-11T05:57:06;1.42;;;0.82;;
68479;SDS011;55469;48.934;12.050;2022-07-11T05:59:32;0.82;;;0.82;;
68479;SDS011;55469;48.934;12.050;2022-07-11T06:02:00;0.82;;;0.73;;
68479;SDS011;55469;48.934;12.050;2022-07-11T06:04:27;2.00;;;0.80;;
68479;SDS011;55469;48.934;12.050;2022-07-11T06:06:53;1.55;;;0.80;;
68479;SDS011;55469;48.934;12.050;2022-07-11T06:09:18;1.42;;;0.88;;
68479;SDS011;55469;48.934;12.050;2022-07-11T06:11:44;1.80;;;0.90;;
68479;SDS011;55469;48.934;12.050;2022-07-11T06:14:10;1.95;;;0.80;;
68479;SDS011;55469;48.934;12.050;2022-07-11T06:16:36;2.08;;;0.85;;
68479;SDS011;55469;48.934;12.050;2022-07-11T06:19:01;0.93;;;0.80;;
68479;SDS011;55469;48.934;12.050;2022-07-11T06:21:27;1.05;;;0.93;;
68479;SDS011;55469;48.934;12.050;2022-07-11T06:23:54;0.98;;;0.88;;
68479;SDS011;55469;48.934;12.050;2022-07-11T06:26:20;2.17;;;0.90;;
68479;SDS011;55469;48.934;12.050;2022-07-11T06:28:46;2.13;;;0.90;;
68479;SDS011;55469;48.934;12.050;2022-07-11T06:31:12;0.80;;;0.70;;
68479;SDS011;55469;48.934;12.050;2022-07-11T06:33:38;0.70;;;0.70;;
68479;SDS011;55469;48.934;12.050;2022-07-11T06:36:04;1.08;;;0.70;;
68479;SDS011;55469;48.934;12.050;2022-07-11T06:38:32;0.73;;;0.70;;
68479;SDS011;55469;48.934;12.050;2022-07-11T06:40:58;0.85;;;0.77;;
68479;SDS011;55469;48.934;12.050;2022-07-11T06:43:24;0.90;;;0.75;;
68479;SDS011;55469;48.934;12.050;2022-07-11T06:45:50;2.33;;;0.90;;
68479;SDS011;55469;48.934;12.050;2022-07-11T06:48:16;1.08;;;0.70;;
68479;SDS011;55469;48.934;12.050;2022-07-11T06:50:41;1.15;;;0.70;;
68479;SDS011;55469;48.934;12.050;2022-07-11T06:53:08;1.73;;;0.80;;
68479;SDS011;55469;48.934;12.050;2022-07-11T06:55:34;1.67;;;0.90;;
68479;SDS011;55469;48.934;12.050;2022-07-11T06:58:00;1.65;;;0.88;;
68479;SDS011;55469;48.934;12.050;2022-07-11T07:00:26;1.23;;;0.90;;
68479;SDS011;55469;48.934;12.050;2022-07-11T07:02:54;1.67;;;0.90;;
68479;SDS011;55469;48.934;12.050;2022-07-11T07:05:22;1.90;;;1.10;;
68479;SDS011;55469;48.934;12.050;2022-07-11T07:07:51;2.30;;;0.90;;
68479;SDS011;55469;48.934;12.050;2022-07-11T07:10:17;3.90;;;1.20;;
68479;SDS011;55469;48.934;12.050;2022-07-11T07:12:44;2.15;;;0.85;;
68479;SDS011;55469;48.934;12.050;2022-07-11T07:15:11;2.95;;;0.98;;
68479;SDS011;55469;48.934;12.050;2022-07-11T07:17:37;1.35;;;0.80;;
68479;SDS011;55469;48.934;12.050;2022-07-11T07:20:03;2.10;;;0.88;;
68479;SDS011;55469;48.934;12.050;2022-07-11T07:22:33;1.60;;;0.95;;
68479;SDS011;55469;48.934;12.050;2022-07-11T07:24:59;1.48;;;0.90;;
68479;SDS011;55469;48.934;12.050;2022-07-11T07:27:26;3.15;;;1.00;;
68479;SDS011;55469;48.934;12.050;2022-07-11T07:29:51;1.42;;;0.90;;
68479;SDS011;55469;48.934;12.050;2022-07-11T07:32:17;1.02;;;0.80;;
68479;SDS011;55469;48.934;12.050;2022-07-11T07:34:43;1.45;;;0.95;;
68479;SDS011;55469;48.934;12.050;2022-07-11T07:37:09;0.80;;;0.80;;
68479;SDS011;55469;48.934;12.050;2022-07-11T07:39:34;1.00;;;0.90;;
68479;SDS011;55469;48.934;12.050;2022-07-11T07:42:00;0.88;;;0.88;;
68479;SDS011;55469;48.934;12.050;2022-07-11T07:44:26;1.02;;;0.90;;
68479;SDS011;55469;48.934;12.050;2022-07-11T07:46:52;1.92;;;1.00;;
68479;SDS011;55469;48.934;12.050;2022-07-11T07:49:17;1.25;;;0.98;;
68479;SDS011;55469;48.934;12.050;2022-07-11T07:51:43;1.67;;;0.90;;
68479;SDS011;55469;48.934;12.050;2022-07-11T07:54:09;1.20;;;1.00;;
68479;SDS011;55469;48.934;12.050;2022-07-11T07:56:35;1.67;;;0.85;;
68479;SDS011;55469;48.934;12.050;2022-07-11T07:59:00;1.33;;;0.90;;
68479;SDS011;55469;48.934;12.050;2022-07-11T08:01:26;1.60;;;1.00;;
68479;SDS011;55469;48.934;12.050;2022-07-11T08:06:30;1.52;;;1.00;;
68479;SDS011;55469;48.934;12.050;2022-07-11T08:08:57;1.98;;;0.90;;
68479;SDS011;55469;48.934;12.050;2022-07-11T08:11:24;1.00;;;0.88;;
68479;SDS011;55469;48.934;12.050;2022-07-11T08:13:50;3.08;;;0.88;;
68479;SDS011;55469;48.934;12.050;2022-07-11T08:16:17;1.92;;;0.90;;
68479;SDS011;55469;48.934;12.050;2022-07-11T08:18:44;1.00;;;0.90;;
68479;SDS011;55469;48.934;12.050;2022-07-11T08:21:10;2.28;;;1.20;;
68479;SDS011;55469;48.934;12.050;2022-07-11T08:23:36;1.70;;;1.10;;
68479;SDS011;55469;48.934;12.050;2022-07-11T08:26:02;2.45;;;1.00;;
68479;SDS011;55469;48.934;12.050;2022-07-11T08:28:29;1.40;;;1.00;;
68479;SDS011;55469;48.934;12.050;2022-07-11T08:30:54;1.63;;;0.90;;
68479;SDS011;55469;48.934;12.050;2022-07-11T08:33:21;0.98;;;0.93;;
68479;SDS011;55469;48.934;12.050;2022-07-11T08:35:47;1.45;;;0.95;;
68479;SDS011;55469;48.934;12.050;2022-07-11T08:38:12;1.00;;;0.88;;
68479;SDS011;55469;48.934;12.050;2022-07-11T08:40:41;1.00;;;0.90;;
68479;SDS011;55469;48.934;12.050;2022-07-11T08:43:14;2.45;;;0.90;;
68479;SDS011;55469;48.934;12.050;2022-07-11T08:45:42;1.48;;;0.98;;
68479;SDS011;55469;48.934;12.050;2022-07-11T08:48:08;2.78;;;0.90;;
68479;SDS011;55469;48.934;12.050;2022-07-11T08:50:35;1.13;;;0.82;;
68479;SDS011;55469;48.934;12.050;2022-07-11T08:53:02;2.70;;;1.23;;
68479;SDS011;55469;48.934;12.050;2022-07-11T08:55:30;1.58;;;1.00;;
68479;SDS011;55469;48.934;12.050;2022-07-11T08:57:56;1.80;;;1.10;;
68479;SDS011;55469;48.934;12.050;2022-07-11T09:00:23;0.82;;;0.80;;
68479;SDS011;55469;48.934;12.050;2022-07-11T09:02:49;1.70;;;1.00;;
68479;SDS011;55469;48.934;12.050;2022-07-11T09:05:17;2.90;;;1.08;;
68479;SDS011;55469;48.934;12.050;2022-07-11T09:07:43;3.25;;;1.20;;
68479;SDS011;55469;48.934;12.050;2022-07-11T09:10:17;1.40;;;1.08;;
68479;SDS011;55469;48.934;12.050;2022-07-11T09:12:59;2.65;;;0.90;;
68479;SDS011;55469;48.934;12.050;2022-07-11T09:15:39;1.50;;;0.93;;
68479;SDS011;55469;48.934;12.050;2022-07-11T09:20:51;1.42;;;1.00;;
68479;SDS011;55469;48.934;12.050;2022-07-11T09:23:38;1.63;;;1.05;;
68479;SDS011;55469;48.934;12.050;2022-07-11T09:26:30;1.50;;;0.93;;
68479;SDS011;55469;48.934;12.050;2022-07-11T09:31:41;1.83;;;1.17;;
68479;SDS011;55469;48.934;12.050;2022-07-11T09:34:12;1.92;;;0.80;;
68479;SDS011;55469;48.934;12.050;2022-07-11T09:39:10;0.80;;;0.80;;
68479;SDS011;55469;48.934;12.050;2022-07-11T09:41:45;0.77;;;0.73;;
68479;SDS011;55469;48.934;12.050;2022-07-11T09:44:17;2.25;;;0.88;;
68479;SDS011;55469;48.934;12.050;2022-07-11T09:46:53;1.02;;;0.90;;
68479;SDS011;55469;48.934;12.050;2022-07-11T09:54:57;0.80;;;0.70;;
68479;SDS011;55469;48.934;12.050;2022-07-11T09:57:33;1.83;;;1.00;;
68479;SDS011;55469;48.934;12.050;2022-07-11T10:00:03;1.08;;;0.73;;
68479;SDS011;55469;48.934;12.050;2022-07-11T10:02:34;2.15;;;0.90;;
68479;SDS011;55469;48.934;12.050;2022-07-11T10:05:01;1.48;;;0.70;;
68479;SDS011;55469;48.934;12.050;2022-07-11T10:07:28;0.70;;;0.70;;
68479;SDS011;55469;48.934;12.050;2022-07-11T10:09:56;1.77;;;1.00;;
68479;SDS011;55469;48.934;12.050;2022-07-11T10:12:24;1.38;;;0.80;;
68479;SDS011;55469;48.934;12.050;2022-07-11T10:14:50;1.52;;;0.80;;
68479;SDS011;55469;48.934;12.050;2022-07-11T10:17:21;1.23;;;0.70;;
68479;SDS011;55469;48.934;12.050;2022-07-11T10:22:53;1.15;;;0.73;;
68479;SDS011;55469;48.934;12.050;2022-07-11T10:25:33;1.23;;;0.80;;
68479;SDS011;55469;48.934;12.050;2022-07-11T10:28:30;1.23;;;0.80;;
68479;SDS011;55469;48.934;12.050;2022-07-11T10:31:01;0.70;;;0.70;;
68479;SDS011;55469;48.934;12.050;2022-07-11T10:33:28;1.17;;;0.70;;
68479;SDS011;55469;48.934;12.050;2022-07-11T10:35:57;0.80;;;0.80;;
68479;SDS011;55469;48.934;12.050;2022-07-11T10:38:23;2.20;;;0.90;;
68479;SDS011;55469;48.934;12.050;2022-07-11T10:40:53;0.88;;;0.60;;
68479;SDS011;55469;48.934;12.050;2022-07-11T10:45:54;0.70;;;0.70;;
68479;SDS011;55469;48.934;12.050;2022-07-11T10:48:27;0.95;;;0.70;;
68479;SDS011;55469;48.934;12.050;2022-07-11T10:51:08;1.35;;;0.73;;
68479;SDS011;55469;48.934;12.050;2022-07-11T10:53:45;1.00;;;0.60;;
68479;SDS011;55469;48.934;12.050;2022-07-11T10:59:17;0.50;;;0.50;;
68479;SDS011;55469;48.934;12.050;2022-07-11T11:04:44;0.60;;;0.60;;
68479;SDS011;55469;48.934;12.050;2022-07-11T11:23:31;0.77;;;0.47;;
68479;SDS011;55469;48.934;12.050;2022-07-11T11:26:07;0.50;;;0.50;;
68479;SDS011;55469;48.934;12.050;2022-07-11T11:28:53;0.50;;;0.50;;
68479;SDS011;55469;48.934;12.050;2022-07-11T11:31:21;0.73;;;0.57;;
68479;SDS011;55469;48.934;12.050;2022-07-11T11:33:48;0.75;;;0.50;;
68479;SDS011;55469;48.934;12.050;2022-07-11T11:36:15;0.95;;;0.60;;
68479;SDS011;55469;48.934;12.050;2022-07-11T11:38:43;0.50;;;0.50;;
68479;SDS011;55469;48.934;12.050;2022-07-11T11:41:12;0.35;;;0.35;;
68479;SDS011;55469;48.934;12.050;2022-07-11T11:43:47;0.50;;;0.50;;
68479;SDS011;55469;48.934;12.050;2022-07-11T11:46:13;0.55;;;0.40;;
68479;SDS011;55469;48.934;12.050;2022-07-11T11:48:39;0.65;;;0.50;;
68479;SDS011;55469;48.934;12.050;2022-07-11T11:51:14;0.50;;;0.50;;
68479;SDS011;55469;48.934;12.050;2022-07-11T11:53:43;0.52;;;0.40;;
68479;SDS011;55469;48.934;12.050;2022-07-11T11:56:19;0.82;;;0.60;;
68479;SDS011;55469;48.934;12.050;2022-07-11T11:58:55;0.40;;;0.40;;
68479;SDS011;55469;48.934;12.050;2022-07-11T12:01:25;1.02;;;0.60;;
68479;SDS011;55469;48.934;12.050;2022-07-11T12:03:57;0.77;;;0.50;;
68479;SDS011;55469;48.934;12.050;2022-07-11T12:09:08;0.50;;;0.47;;
68479;SDS011;55469;48.934;12.050;2022-07-11T12:11:40;0.85;;;0.40;;
68479;SDS011;55469;48.934;12.050;2022-07-11T12:14:09;0.40;;;0.40;;
68479;SDS011;55469;48.934;12.050;2022-07-11T12:16:40;0.80;;;0.60;;
68479;SDS011;55469;48.934;12.050;2022-07-11T12:19:13;0.35;;;0.35;;
68479;SDS011;55469;48.934;12.050;2022-07-11T12:21:40;1.08;;;0.50;;
68479;SDS011;55469;48.934;12.050;2022-07-11T12:24:16;0.63;;;0.50;;
68479;SDS011;55469;48.934;12.050;2022-07-11T12:26:45;0.40;;;0.40;;
68479;SDS011;55469;48.934;12.050;2022-07-11T12:34:22;0.47;;;0.47;;
68479;SDS011;55469;48.934;12.050;2022-07-11T12:39:36;0.70;;;0.50;;
68479;SDS011;55469;48.934;12.050;2022-07-11T12:45:07;0.50;;;0.50;;
68479;SDS011;55469;48.934;12.050;2022-07-11T12:47:48;0.50;;;0.50;;
68479;SDS011;55469;48.934;12.050;2022-07-11T12:52:52;0.45;;;0.45;;
68479;SDS011;55469;48.934;12.050;2022-07-11T12:55:25;0.60;;;0.50;;
68479;SDS011;55469;48.934;12.050;2022-07-11T12:58:09;0.57;;;0.50;;
68479;SDS011;55469;48.934;12.050;2022-07-11T13:00:43;0.40;;;0.40;;
68479;SDS011;55469;48.934;12.050;2022-07-11T13:03:28;0.50;;;0.47;;
68479;SDS011;55469;48.934;12.050;2022-07-11T13:05:56;0.63;;;0.45;;
68479;SDS011;55469;48.934;12.050;2022-07-11T13:08:26;2.70;;;0.50;;
68479;SDS011;55469;48.934;12.050;2022-07-11T13:11:28;0.40;;;0.40;;
68479;SDS011;55469;48.934;12.050;2022-07-11T13:13:56;0.70;;;0.63;;
68479;SDS011;55469;48.934;12.050;2022-07-11T13:16:22;0.52;;;0.52;;
68479;SDS011;55469;48.934;12.050;2022-07-11T13:18:48;0.65;;;0.50;;
68479;SDS011;55469;48.934;12.050;2022-07-11T13:21:15;0.40;;;0.40;;
68479;SDS011;55469;48.934;12.050;2022-07-11T13:23:41;1.52;;;0.50;;
68479;SDS011;55469;48.934;12.050;2022-07-11T13:26:08;0.50;;;0.50;;
68479;SDS011;55469;48.934;12.050;2022-07-11T13:28:35;1.17;;;0.60;;
68479;SDS011;55469;48.934;12.050;2022-07-11T13:31:02;0.40;;;0.40;;
68479;SDS011;55469;48.934;12.050;2022-07-11T13:33:31;0.52;;;0.50;;
68479;SDS011;55469;48.934;12.050;2022-07-11T13:35:57;0.68;;;0.60;;
68479;SDS011;55469;48.934;12.050;2022-07-11T13:38:23;0.52;;;0.50;;
68479;SDS011;55469;48.934;12.050;2022-07-11T13:40:49;0.55;;;0.55;;
68479;SDS011;55469;48.934;12.050;2022-07-11T13:43:15;0.60;;;0.50;;
68479;SDS011;55469;48.934;12.050;2022-07-11T13:45:42;0.50;;;0.50;;
68479;SDS011;55469;48.934;12.050;2022-07-11T13:48:09;0.65;;;0.60;;
68479;SDS011;55469;48.934;12.050;2022-07-11T13:50:36;0.60;;;0.60;;
68479;SDS011;55469;48.934;12.050;2022-07-11T13:53:02;0.60;;;0.60;;
68479;SDS011;55469;48.934;12.050;2022-07-11T13:55:28;0.40;;;0.40;;
68479;SDS011;55469;48.934;12.050;2022-07-11T13:57:55;0.47;;;0.47;;
68479;SDS011;55469;48.934;12.050;2022-07-11T14:00:22;1.08;;;0.70;;
68479;SDS011;55469;48.934;12.050;2022-07-11T14:02:49;0.60;;;0.60;;
68479;SDS011;55469;48.934;12.050;2022-07-11T14:05:15;0.93;;;0.70;;
68479;SDS011;55469;48.934;12.050;2022-07-11T14:07:43;0.77;;;0.60;;
68479;SDS011;55469;48.934;12.050;2022-07-11T14:10:10;1.20;;;0.60;;
68479;SDS011;55469;48.934;12.050;2022-07-11T14:12:36;0.63;;;0.50;;
68479;SDS011;55469;48.934;12.050;2022-07-11T14:15:02;0.60;;;0.60;;
68479;SDS011;55469;48.934;12.050;2022-07-11T14:17:28;0.75;;;0.47;;
68479;SDS011;55469;48.934;12.050;2022-07-11T14:19:54;0.40;;;0.40;;
68479;SDS011;55469;48.934;12.050;2022-07-11T14:22:22;0.65;;;0.60;;
68479;SDS011;55469;48.934;12.050;2022-07-11T14:24:48;0.60;;;0.60;;
68479;SDS011;55469;48.934;12.050;2022-07-11T14:27:15;0.70;;;0.57;;
68479;SDS011;55469;48.934;12.050;2022-07-11T14:29:41;0.75;;;0.75;;
68479;SDS011;55469;48.934;12.050;2022-07-11T14:32:08;0.93;;;0.50;;
68479;SDS011;55469;48.934;12.050;2022-07-11T14:34:36;0.50;;;0.50;;
68479;SDS011;55469;48.934;12.050;2022-07-11T14:37:02;0.50;;;0.50;;
68479;SDS011;55469;48.934;12.050;2022-07-11T14:39:29;0.60;;;0.60;;
68479;SDS011;55469;48.934;12.050;2022-07-11T14:41:55;1.05;;;0.70;;
68479;SDS011;55469;48.934;12.050;2022-07-11T14:44:20;0.73;;;0.73;;
68479;SDS011;55469;48.934;12.050;2022-07-11T14:46:46;0.60;;;0.60;;
68479;SDS011;55469;48.934;12.050;2022-07-11T14:49:12;0.50;;;0.50;;
68479;SDS011;55469;48.934;12.050;2022-07-11T14:51:38;0.63;;;0.57;;
68479;SDS011;55469;48.934;12.050;2022-07-11T14:54:04;1.38;;;0.70;;
68479;SDS011;55469;48.934;12.050;2022-07-11T14:56:30;1.00;;;0.65;;
68479;SDS011;55469;48.934;12.050;2022-07-11T14:58:57;0.65;;;0.65;;
68479;SDS011;55469;48.934;12.050;2022-07-11T15:01:22;0.60;;;0.60;;
68479;SDS011;55469;48.934;12.050;2022-07-11T15:03:48;0.73;;;0.60;;
68479;SDS011;55469;48.934;12.050;2022-07-11T15:06:15;0.50;;;0.50;;
68479;SDS011;55469;48.934;12.050;2022-07-11T15:08:42;0.60;;;0.60;;
68479;SDS011;55469;48.934;12.050;2022-07-11T15:11:26;0.60;;;0.60;;
68479;SDS011;55469;48.934;12.050;2022-07-11T15:14:11;0.52;;;0.30;;
68479;SDS011;55469;48.934;12.050;2022-07-11T15:16:39;0.50;;;0.50;;
68479;SDS011;55469;48.934;12.050;2022-07-11T15:19:06;0.55;;;0.55;;
68479;SDS011;55469;48.934;12.050;2022-07-11T15:21:33;0.30;;;0.30;;
68479;SDS011;55469;48.934;12.050;2022-07-11T15:23:59;0.40;;;0.40;;
68479;SDS011;55469;48.934;12.050;2022-07-11T15:26:26;0.30;;;0.30;;
68479;SDS011;55469;48.934;12.050;2022-07-11T15:28:52;0.38;;;0.35;;
68479;SDS011;55469;48.934;12.050;2022-07-11T15:31:19;0.38;;;0.38;;
68479;SDS011;55469;48.934;12.050;2022-07-11T15:33:45;0.32;;;0.32;;
68479;SDS011;55469;48.934;12.050;2022-07-11T15:36:14;1.38;;;0.30;;
68479;SDS011;55469;48.934;12.050;2022-07-11T15:38:41;0.82;;;0.40;;